Time;durP1;ratioP1;P1;durP2;ratioP2;P2;SDS_P1;SDS_P2;PMS_P1;PMS_P2;Temp;Humidity;BMP_temperature;BMP_pressure;BME280_temperature;BME280_humidity;BME280_pressure;Samples;Min_cycle;Max_cycle;Signal;HPM_P1;HPM_P2
2024/01/22 00:00:47;;;;;;;5.93;3.35;;;;;;;-1.74;89.97;96310.28;5029582;28;20636;-76
2024/01/22 00:03:13;;;;;;;6.53;3.13;;;;;;;-1.66;89.81;96318.03;5028495;28;20243;-76
2024/01/22 00:05:40;;;;;;;7.57;3.22;;;;;;;-2.30;90.93;96316.09;5028866;28;20207;-75
2024/01/22 00:08:07;;;;;;;7.53;4.07;;;;;;;-2.52;91.30;96327.94;5028975;28;20644;-76
2024/01/22 00:10:34;;;;;;;13.70;3.80;;;;;;;-2.68;92.27;96323.03;5029243;28;20216;-76
2024/01/22 00:13:01;;;;;;;9.18;3.22;;;;;;;-2.54;93.30;96325.50;5028356;28;20227;-76
2024/01/22 00:15:29;;;;;;;17.95;8.70;;;;;;;-2.41;93.25;96324.69;5028858;28;20200;-74
2024/01/22 00:17:56;;;;;;;13.63;5.65;;;;;;;-2.48;93.60;96325.72;5028431;28;20204;-77
2024/01/22 00:20:23;;;;;;;8.57;4.18;;;;;;;-2.50;93.24;96331.22;5029028;28;20204;-76
2024/01/22 00:22:50;;;;;;;19.48;7.38;;;;;;;-2.89;93.91;96322.22;5027496;28;20204;-76
2024/01/22 00:25:17;;;;;;;11.23;4.43;;;;;;;-3.09;94.06;96337.25;5029030;28;20236;-77
2024/01/22 00:27:44;;;;;;;12.20;4.60;;;;;;;-3.22;95.16;96339.84;5029351;28;20207;-76
2024/01/22 00:30:11;;;;;;;5.45;3.35;;;;;;;-3.29;96.27;96336.38;5029222;28;20620;-76
2024/01/22 00:32:39;;;;;;;10.73;4.07;;;;;;;-2.94;96.07;96334.44;5028967;28;20256;-75
2024/01/22 00:35:07;;;;;;;5.70;3.10;;;;;;;-2.77;96.17;96334.88;5028423;28;20208;-75
2024/01/22 00:37:34;;;;;;;5.47;3.55;;;;;;;-2.71;94.64;96334.03;5028865;28;20204;-75
2024/01/22 00:40:00;;;;;;;5.75;2.80;;;;;;;-2.40;94.82;96331.63;5028971;28;20200;-75
2024/01/22 00:42:27;;;;;;;4.97;3.72;;;;;;;-2.04;93.44;96335.66;5029064;28;20849;-75
2024/01/22 00:44:54;;;;;;;14.15;3.33;;;;;;;-1.97;92.01;96326.69;5027844;28;20201;-75
2024/01/22 00:47:21;;;;;;;6.28;4.10;;;;;;;-1.81;92.15;96317.47;5028648;28;20619;-76
2024/01/22 00:49:50;;;;;;;5.30;3.78;;;;;;;-2.12;90.34;96306.69;5028776;28;20200;-74
2024/01/22 00:52:17;;;;;;;7.43;4.40;;;;;;;-1.75;92.27;96319.25;5028225;28;20220;-75
2024/01/22 00:54:44;;;;;;;6.50;3.97;;;;;;;-1.74;91.26;96315.59;5028055;28;20220;-77
2024/01/22 00:57:10;;;;;;;4.57;3.17;;;;;;;-1.89;90.79;96312.34;5028810;28;20607;-76
2024/01/22 00:59:37;;;;;;;5.90;3.90;;;;;;;-1.76;90.02;96312.31;5028433;28;20212;-76
2024/01/22 01:02:04;;;;;;;3.40;2.70;;;;;;;-1.91;89.49;96311.75;5030355;28;20215;-76
2024/01/22 01:04:31;;;;;;;5.63;3.70;;;;;;;-2.05;90.20;96307.50;5030415;28;20208;-78
2024/01/22 01:06:59;;;;;;;12.23;3.58;;;;;;;-2.32;89.25;96307.50;5032033;28;20569;-76
2024/01/22 01:09:27;;;;;;;4.35;2.42;;;;;;;-3.20;91.32;96307.88;5032077;28;20295;-77
2024/01/22 01:11:54;;;;;;;11.82;4.75;;;;;;;-3.49;93.25;96309.00;5032412;28;20201;-76
2024/01/22 01:14:20;;;;;;;7.00;2.55;;;;;;;-3.70;94.70;96313.41;5031190;28;20278;-78
2024/01/22 01:16:50;;;;;;;9.98;3.55;;;;;;;-3.44;95.06;96317.19;5031366;28;20208;-79
2024/01/22 01:19:17;;;;;;;7.88;4.40;;;;;;;-4.12;95.35;96313.59;5032811;28;20581;-78
2024/01/22 01:21:44;;;;;;;8.73;4.90;;;;;;;-3.51;96.42;96316.31;5030770;28;20638;-77
2024/01/22 01:24:12;;;;;;;11.35;4.80;;;;;;;-3.29;95.17;96316.00;5031272;28;20283;-77
2024/01/22 01:26:43;;;;;;;15.80;7.50;;;;;;;-3.11;94.03;96307.47;5041057;28;20204;-77
2024/01/22 01:29:10;;;;;;;6.00;3.63;;;;;;;-3.35;93.30;96306.19;5040815;28;20204;-77
2024/01/22 01:31:37;;;;;;;5.72;3.97;;;;;;;-3.81;93.96;96311.31;5042332;28;20200;-76
2024/01/22 01:34:04;;;;;;;5.25;3.65;;;;;;;-3.86;95.18;96310.28;5039566;28;20219;-77
2024/01/22 01:36:31;;;;;;;10.85;4.20;;;;;;;-4.00;94.83;96317.31;5041379;28;20296;-77
2024/01/22 01:38:58;;;;;;;8.73;3.30;;;;;;;-3.93;96.77;96302.28;5039493;28;20207;-77
2024/01/22 01:41:26;;;;;;;8.75;2.88;;;;;;;-3.38;95.74;96300.47;5037617;28;20200;-78
2024/01/22 01:43:53;;;;;;;10.85;3.80;;;;;;;-3.95;94.30;96294.53;5039535;28;20623;-77
2024/01/22 01:46:20;;;;;;;14.18;4.40;;;;;;;-3.80;95.24;96297.06;5041920;28;20204;-78
2024/01/22 01:48:46;;;;;;;8.30;5.70;;;;;;;-3.56;94.57;96302.88;5038426;28;20215;-76
2024/01/22 01:51:13;;;;;;;11.75;3.85;;;;;;;-3.39;94.09;96299.66;5039102;28;20200;-76
2024/01/22 01:53:40;;;;;;;6.25;3.00;;;;;;;-3.42;91.98;96299.25;5040256;28;20199;-76
2024/01/22 01:56:08;;;;;;;5.50;3.22;;;;;;;-3.16;92.82;96294.03;5040261;28;20219;-75
2024/01/22 01:58:37;;;;;;;4.07;2.13;;;;;;;-3.56;91.63;96293.09;5039994;28;20632;-77
2024/01/22 02:01:07;;;;;;;9.38;4.32;;;;;;;-3.96;94.02;96292.91;5041923;28;20250;-76
2024/01/22 02:03:33;;;;;;;11.85;3.20;;;;;;;-4.38;93.73;96304.47;5038224;28;20235;-76
2024/01/22 02:06:02;;;;;;;7.13;2.95;;;;;;;-4.64;95.16;96304.25;5039159;28;20675;-75
2024/01/22 02:08:29;;;;;;;9.07;4.20;;;;;;;-4.80;96.23;96304.56;5041117;28;20597;-75
2024/01/22 02:10:55;;;;;;;10.20;3.13;;;;;;;-4.50;95.76;96306.00;5037844;28;20563;-76
2024/01/22 02:13:22;;;;;;;5.72;4.75;;;;;;;-4.41;94.87;96307.50;5039672;28;20204;-76
2024/01/22 02:15:50;;;;;;;8.77;3.65;;;;;;;-4.68;93.99;96316.25;5038220;28;20227;-73
2024/01/22 02:18:17;;;;;;;6.00;3.83;;;;;;;-4.56;94.10;96304.13;5039011;28;20204;-74
2024/01/22 02:20:44;;;;;;;7.20;3.80;;;;;;;-4.75;94.57;96302.97;5037717;28;20212;-72
2024/01/22 02:23:12;;;;;;;5.38;3.60;;;;;;;-4.78;94.59;96308.63;5040066;28;20317;-72
2024/01/22 02:25:39;;;;;;;14.20;5.57;;;;;;;-4.70;95.04;96305.03;5033460;28;20773;-72
2024/01/22 02:28:06;;;;;;;8.38;4.72;;;;;;;-4.50;95.64;96299.88;5030347;28;20355;-73
2024/01/22 02:30:33;;;;;;;8.70;4.22;;;;;;;-4.64;94.43;96296.31;5031091;28;20428;-73
2024/01/22 02:32:59;;;;;;;9.00;4.18;;;;;;;-4.68;94.79;96297.75;5030664;28;20660;-73
2024/01/22 02:35:26;;;;;;;16.42;4.20;;;;;;;-5.01;94.98;96292.16;5029675;28;20208;-72
2024/01/22 02:37:53;;;;;;;10.40;5.20;;;;;;;-5.11;95.66;96303.06;5029782;28;20250;-73
2024/01/22 02:40:21;;;;;;;11.27;4.57;;;;;;;-4.87;96.04;96293.09;5030591;28;20563;-74
2024/01/22 02:42:50;;;;;;;16.42;4.78;;;;;;;-5.20;95.67;96295.47;5030229;28;20250;-73
2024/01/22 02:45:17;;;;;;;8.52;3.45;;;;;;;-5.05;96.19;96291.72;5030071;28;20208;-76
2024/01/22 02:47:44;;;;;;;5.95;3.95;;;;;;;-5.16;95.75;96288.78;5030678;28;20193;-73
2024/01/22 02:50:11;;;;;;;5.30;3.15;;;;;;;-5.64;95.94;96298.22;5030648;28;20567;-74
2024/01/22 02:52:38;;;;;;;5.57;3.47;;;;;;;-5.75;97.55;96305.63;5030446;28;20200;-74
2024/01/22 02:55:05;;;;;;;3.90;2.45;;;;;;;-5.77;98.01;96306.81;5029848;28;20201;-72
2024/01/22 02:57:33;;;;;;;9.77;3.50;;;;;;;-5.81;98.67;96302.88;5030479;28;20207;-72
2024/01/22 03:00:00;;;;;;;13.07;5.15;;;;;;;-5.70;98.42;96306.88;5030442;28;20193;-74
2024/01/22 03:02:27;;;;;;;11.05;4.82;;;;;;;-5.84;98.35;96295.34;5029200;28;20262;-75
2024/01/22 03:04:53;;;;;;;18.95;6.22;;;;;;;-5.72;98.16;96305.22;5029812;28;20200;-73
2024/01/22 03:07:20;;;;;;;14.30;5.60;;;;;;;-5.25;98.54;96301.28;5029752;28;20204;-74
2024/01/22 03:09:47;;;;;;;5.10;3.40;;;;;;;-4.97;97.65;96287.31;5029737;28;20234;-75
2024/01/22 03:12:14;;;;;;;9.50;5.32;;;;;;;-5.35;96.54;96282.31;5031332;28;20598;-74
2024/01/22 03:14:42;;;;;;;12.93;5.30;;;;;;;-4.95;95.91;96286.13;5028747;28;20197;-73
2024/01/22 03:17:09;;;;;;;11.10;5.07;;;;;;;-5.38;95.55;96301.16;5031140;28;20687;-74
2024/01/22 03:19:36;;;;;;;12.82;4.65;;;;;;;-5.63;95.68;96308.59;5032561;28;20291;-74
2024/01/22 03:22:03;;;;;;;6.63;4.43;;;;;;;-5.43;95.73;96314.09;5030929;28;20603;-72
2024/01/22 03:24:30;;;;;;;9.48;4.50;;;;;;;-5.18;97.31;96318.00;5026596;28;20323;-78
2024/01/22 03:26:57;;;;;;;12.35;5.22;;;;;;;-5.29;95.54;96309.75;5040774;28;20221;-77
2024/01/22 03:29:24;;;;;;;8.18;3.60;;;;;;;-5.37;95.48;96318.63;5032249;28;20671;-76
2024/01/22 03:31:53;;;;;;;8.27;4.45;;;;;;;-5.30;95.47;96316.06;5030549;28;20212;-77
2024/01/22 03:34:20;;;;;;;8.00;4.18;;;;;;;-5.90;96.35;96318.06;5029974;28;20200;-76
2024/01/22 03:36:47;;;;;;;15.52;4.97;;;;;;;-5.54;97.35;96318.03;5029420;28;20258;-76
2024/01/22 03:39:13;;;;;;;12.57;6.20;;;;;;;-5.06;96.00;96321.78;5027159;28;20215;-77
2024/01/22 03:41:41;;;;;;;5.47;3.60;;;;;;;-5.31;95.47;96312.59;5030294;28;20208;-76
2024/01/22 03:44:07;;;;;;;9.93;4.57;;;;;;;-5.75;96.29;96329.38;5027890;28;20228;-76
2024/01/22 03:46:34;;;;;;;12.55;5.30;;;;;;;-5.77;96.90;96323.47;5028591;28;20205;-76
2024/01/22 03:49:02;;;;;;;12.40;5.95;;;;;;;-5.75;97.55;96329.38;5029594;28;20204;-76
2024/01/22 03:51:29;;;;;;;13.50;4.68;;;;;;;-5.38;96.91;96314.34;5029546;28;20300;-75
2024/01/22 03:53:56;;;;;;;15.75;5.63;;;;;;;-5.48;96.77;96317.31;5029630;28;20655;-76
2024/01/22 03:56:23;;;;;;;14.07;6.47;;;;;;;-5.48;96.12;96325.22;5027250;28;20250;-77
2024/01/22 03:58:49;;;;;;;13.35;5.65;;;;;;;-5.45;96.51;96321.38;5029273;28;20231;-75
2024/01/22 04:01:21;;;;;;;17.50;6.20;;;;;;;-5.52;97.42;96325.78;5028850;28;20212;-75
2024/01/22 04:03:48;;;;;;;18.58;7.43;;;;;;;-5.23;97.36;96325.69;5029104;28;20670;-75
2024/01/22 04:06:17;;;;;;;13.65;5.75;;;;;;;-4.96;97.23;96310.91;5028876;28;20208;-74
2024/01/22 04:08:44;;;;;;;11.93;5.07;;;;;;;-4.79;96.31;96311.47;5027393;28;20200;-75
2024/01/22 04:11:11;;;;;;;13.18;5.03;;;;;;;-5.33;95.91;96314.63;5028515;28;20571;-75
2024/01/22 04:13:39;;;;;;;10.63;4.82;;;;;;;-5.34;96.96;96320.91;5028913;28;20862;-76
2024/01/22 04:16:06;;;;;;;14.55;6.05;;;;;;;-5.45;97.09;96316.91;5024898;28;20200;-76
2024/01/22 04:18:33;;;;;;;10.68;5.28;;;;;;;-5.09;97.41;96322.19;5029369;28;20882;-75
2024/01/22 04:20:59;;;;;;;6.45;3.75;;;;;;;-5.27;97.66;96319.16;5027989;28;20637;-76
2024/01/22 04:23:29;;;;;;;12.93;5.00;;;;;;;-5.11;96.91;96318.09;5028796;28;20224;-76
2024/01/22 04:25:56;;;;;;;12.15;4.57;;;;;;;-5.59;97.46;96319.59;5031968;28;20242;-76
2024/01/22 04:28:23;;;;;;;10.38;5.45;;;;;;;-5.74;98.37;96330.97;5032463;28;20212;-77
2024/01/22 04:30:50;;;;;;;14.70;5.55;;;;;;;-5.83;98.35;96328.63;5030002;28;20219;-78
2024/01/22 04:33:17;;;;;;;8.55;2.95;;;;;;;-6.04;99.55;96329.44;5029728;28;20200;-78
2024/01/22 04:35:43;;;;;;;14.48;6.32;;;;;;;-6.07;100.00;96315.78;5028296;28;20208;-76
2024/01/22 04:38:10;;;;;;;16.98;5.90;;;;;;;-6.01;100.00;96315.84;5032860;28;20542;-77
2024/01/22 04:40:38;;;;;;;12.75;5.28;;;;;;;-5.59;100.00;96314.31;5032991;28;20204;-77
2024/01/22 04:43:05;;;;;;;15.88;6.57;;;;;;;-5.83;100.00;96313.63;5029621;28;20208;-78
2024/01/22 04:45:32;;;;;;;12.70;5.18;;;;;;;-5.57;100.00;96313.13;5032198;28;20204;-77
2024/01/22 04:48:00;;;;;;;14.38;6.25;;;;;;;-5.28;100.00;96312.22;5032673;28;20215;-76
2024/01/22 04:50:27;;;;;;;10.77;5.30;;;;;;;-5.24;98.97;96317.97;5029187;28;20196;-78
2024/01/22 04:52:54;;;;;;;8.93;3.67;;;;;;;-5.72;97.30;96321.06;5035823;28;20549;-77
2024/01/22 04:55:21;;;;;;;9.15;4.15;;;;;;;-6.09;97.47;96323.88;5031922;28;20213;-77
2024/01/22 04:57:49;;;;;;;6.88;4.30;;;;;;;-6.05;98.47;96319.88;5032601;28;20223;-78
2024/01/22 05:00:16;;;;;;;12.82;4.97;;;;;;;-6.12;98.40;96324.22;5033187;28;20216;-77
2024/01/22 05:02:43;;;;;;;15.20;6.25;;;;;;;-6.22;98.88;96326.31;5032744;28;20197;-78
2024/01/22 05:05:10;;;;;;;9.05;4.63;;;;;;;-6.12;98.89;96329.50;5032124;28;20231;-77
2024/01/22 05:07:37;;;;;;;9.80;3.97;;;;;;;-6.10;98.83;96332.78;5032649;28;20208;-75
2024/01/22 05:10:05;;;;;;;10.13;4.07;;;;;;;-5.98;98.96;96331.31;5032479;28;20216;-76
2024/01/22 05:12:32;;;;;;;9.90;5.22;;;;;;;-6.07;98.42;96337.69;5032147;28;20663;-76
2024/01/22 05:15:00;;;;;;;8.52;4.32;;;;;;;-6.00;98.48;96320.13;5031193;28;20929;-76
2024/01/22 05:17:28;;;;;;;11.18;4.10;;;;;;;-5.40;99.09;96324.28;5031862;28;20208;-77
2024/01/22 05:19:55;;;;;;;9.13;4.57;;;;;;;-5.09;98.26;96332.75;5031820;28;20196;-75
2024/01/22 05:22:22;;;;;;;14.10;4.43;;;;;;;-5.13;95.42;96335.94;5032543;28;20668;-77
2024/01/22 05:24:49;;;;;;;12.35;4.97;;;;;;;-5.39;95.73;96326.75;5031516;28;20569;-77
2024/01/22 05:27:16;;;;;;;6.13;3.83;;;;;;;-5.83;95.41;96324.19;5032239;28;20208;-76
2024/01/22 05:29:43;;;;;;;9.90;4.05;;;;;;;-5.88;96.45;96337.13;5032475;28;20216;-76
2024/01/22 05:32:11;;;;;;;17.25;5.88;;;;;;;-6.12;97.74;96340.03;5032212;28;20208;-76
2024/01/22 05:34:38;;;;;;;9.98;4.63;;;;;;;-6.26;98.31;96338.22;5031908;28;20228;-77
2024/01/22 05:37:05;;;;;;;11.60;4.00;;;;;;;-6.17;99.32;96342.44;5032444;28;20219;-76
2024/01/22 05:39:32;;;;;;;8.93;4.18;;;;;;;-6.15;98.44;96335.16;5023346;28;20656;-76
2024/01/22 05:41:59;;;;;;;10.48;4.43;;;;;;;-6.05;98.46;96340.97;5032291;28;20274;-75
2024/01/22 05:44:26;;;;;;;8.77;4.57;;;;;;;-5.89;98.93;96346.06;5031552;28;20221;-75
2024/01/22 05:46:52;;;;;;;7.72;3.35;;;;;;;-5.67;98.12;96324.97;5030213;28;20924;-74
2024/01/22 05:49:21;;;;;;;8.73;3.70;;;;;;;-5.66;97.22;96340.63;5031620;28;20212;-76
2024/01/22 05:51:48;;;;;;;11.98;5.28;;;;;;;-5.79;97.08;96330.75;5031845;28;20258;-75
2024/01/22 05:54:15;;;;;;;9.35;3.95;;;;;;;-5.83;96.88;96329.47;5029635;28;20636;-75
2024/01/22 05:56:42;;;;;;;8.50;3.67;;;;;;;-3.48;100.00;96313.28;5030727;28;20565;-72
2024/01/22 05:59:09;;;;;;;10.40;4.45;;;;;;;-0.49;100.00;96290.97;5029881;28;20201;-77
2024/01/22 06:01:36;;;;;;;13.07;4.90;;;;;;;-4.09;100.00;96313.19;5032446;28;20239;-75
2024/01/22 06:04:04;;;;;;;7.55;3.47;;;;;;;-5.60;100.00;96333.81;5032529;28;20232;-75
2024/01/22 06:06:32;;;;;;;18.52;5.68;;;;;;;-6.00;100.00;96343.03;5030398;28;20209;-77
2024/01/22 06:08:59;;;;;;;11.30;5.35;;;;;;;-6.23;100.00;96348.41;5030857;28;20292;-76
2024/01/22 06:11:27;;;;;;;17.05;5.50;;;;;;;-6.49;100.00;96339.13;5030881;28;20211;-76
2024/01/22 06:13:54;;;;;;;11.13;3.88;;;;;;;-6.61;100.00;96353.72;5031223;28;20200;-77
2024/01/22 06:16:21;;;;;;;17.88;6.70;;;;;;;-6.02;100.00;96351.16;5030791;28;20220;-76
2024/01/22 06:18:48;;;;;;;13.95;5.45;;;;;;;-5.91;100.00;96345.44;5031427;28;20208;-77
2024/01/22 06:21:15;;;;;;;13.93;5.80;;;;;;;-5.75;100.00;96352.31;5026118;28;20262;-77
2024/01/22 06:23:46;;;;;;;11.55;5.15;;;;;;;-5.78;100.00;96356.13;5025430;28;20235;-76
2024/01/22 06:26:14;;;;;;;10.45;5.68;;;;;;;-5.51;100.00;96354.63;5030192;28;20642;-73
2024/01/22 06:28:40;;;;;;;12.38;5.35;;;;;;;-5.54;99.29;96359.44;5031959;28;20209;-77
2024/01/22 06:31:07;;;;;;;9.80;4.40;;;;;;;-5.45;99.12;96350.41;5031372;28;20204;-77
2024/01/22 06:33:35;;;;;;;12.55;4.95;;;;;;;-5.23;97.93;96362.66;5020157;28;20597;-76
2024/01/22 06:36:02;;;;;;;14.48;4.88;;;;;;;-5.39;96.94;96368.16;5029059;28;20212;-79
2024/01/22 06:38:28;;;;;;;10.55;4.38;;;;;;;-5.54;96.53;96370.00;5028474;28;20427;-76
2024/01/22 06:40:57;;;;;;;14.45;5.07;;;;;;;-5.55;97.06;96363.09;5029732;28;20215;-77
2024/01/22 06:43:24;;;;;;;12.35;5.78;;;;;;;-5.97;97.56;96361.97;5029519;28;20216;-76
2024/01/22 06:45:51;;;;;;;16.02;6.53;;;;;;;-6.32;99.69;96354.78;5028470;28;20201;-75
2024/01/22 06:48:18;;;;;;;18.50;7.38;;;;;;;-6.55;100.00;96366.16;5027949;28;20549;-75
2024/01/22 06:50:45;;;;;;;12.40;4.88;;;;;;;-6.55;100.00;96355.63;5029506;28;20208;-76
2024/01/22 06:53:12;;;;;;;19.52;6.60;;;;;;;-5.95;100.00;96357.34;5021782;28;20691;-79
2024/01/22 06:55:39;;;;;;;12.32;3.97;;;;;;;-5.64;99.44;96359.75;5026656;28;20223;-76
2024/01/22 06:58:07;;;;;;;6.90;3.72;;;;;;;-5.76;97.82;96362.03;5028742;28;20588;-75
2024/01/22 07:00:36;;;;;;;7.78;4.43;;;;;;;-6.17;97.36;96368.81;5024915;28;20690;-76
2024/01/22 07:03:03;;;;;;;12.95;5.38;;;;;;;-6.46;98.77;96374.84;5028123;28;20208;-76
2024/01/22 07:05:29;;;;;;;16.60;5.30;;;;;;;-6.37;98.72;96378.22;5028479;28;20240;-75
2024/01/22 07:07:58;;;;;;;4.65;3.35;;;;;;;-6.06;98.55;96370.97;5027368;28;20215;-75
2024/01/22 07:10:25;;;;;;;15.27;5.35;;;;;;;-6.13;97.49;96380.59;5019396;28;20223;-78
2024/01/22 07:12:51;;;;;;;8.98;4.85;;;;;;;-5.85;98.03;96384.22;5029274;28;20208;-75
2024/01/22 07:15:20;;;;;;;7.72;3.28;;;;;;;-5.59;96.82;96382.94;5028853;28;20205;-77
2024/01/22 07:17:47;;;;;;;12.40;3.88;;;;;;;-5.97;96.36;96380.44;5028948;28;20763;-74
2024/01/22 07:20:14;;;;;;;6.38;3.58;;;;;;;-5.70;96.58;96378.13;5029007;28;20521;-75
2024/01/22 07:22:42;;;;;;;13.70;5.78;;;;;;;-5.92;97.37;96378.09;5029551;28;20290;-75
2024/01/22 07:25:10;;;;;;;10.35;5.65;;;;;;;-5.43;96.06;96374.81;5028736;28;20331;-76
2024/01/22 07:27:39;;;;;;;15.57;5.53;;;;;;;-5.63;97.20;96376.41;5029188;28;20783;-79
2024/01/22 07:30:09;;;;;;;5.88;2.70;;;;;;;-5.60;97.24;96381.31;5029735;28;20227;-77
2024/01/22 07:32:38;;;;;;;8.27;3.67;;;;;;;-5.21;96.05;96381.78;5029438;28;20299;-78
2024/01/22 07:35:07;;;;;;;8.02;4.18;;;;;;;-4.80;95.34;96368.00;5028620;28;20207;-77
2024/01/22 07:37:36;;;;;;;16.20;4.70;;;;;;;-4.37;94.39;96366.09;5029527;28;20216;-76
2024/01/22 07:40:04;;;;;;;7.55;4.65;;;;;;;-4.16;92.79;96354.66;5029421;28;20212;-75
2024/01/22 07:42:33;;;;;;;12.63;3.85;;;;;;;-3.63;91.38;96347.84;5029129;28;20631;-76
2024/01/22 07:45:01;;;;;;;6.68;3.45;;;;;;;-4.24;89.53;96352.19;5028915;28;20260;-76
2024/01/22 07:47:28;;;;;;;3.53;2.58;;;;;;;-4.73;91.15;96331.84;5026434;28;20200;-77
2024/01/22 07:49:56;;;;;;;6.13;3.53;;;;;;;-4.28;91.51;96346.44;5027621;28;20212;-76
2024/01/22 07:52:23;;;;;;;5.93;3.60;;;;;;;-4.38;91.82;96345.97;5028619;28;20208;-76
2024/01/22 07:54:52;;;;;;;12.50;3.97;;;;;;;-4.62;91.61;96349.84;5029749;28;20220;-75
2024/01/22 07:57:20;;;;;;;6.68;3.60;;;;;;;-4.40;91.45;96350.63;5029111;28;20545;-76
2024/01/22 07:59:47;;;;;;;5.53;3.30;;;;;;;-3.36;91.39;96346.13;5029683;28;20215;-78
2024/01/22 08:02:14;;;;;;;5.95;3.25;;;;;;;-3.35;86.94;96342.47;5030215;28;20231;-78
2024/01/22 08:04:41;;;;;;;8.90;4.45;;;;;;;-2.66;87.44;96336.91;5029862;28;20777;-77
2024/01/22 08:07:09;;;;;;;7.35;2.53;;;;;;;-1.98;82.76;96319.72;5029388;28;20211;-77
2024/01/22 08:09:37;;;;;;;4.03;2.30;;;;;;;-1.74;81.62;96336.00;5030268;28;20208;-77
2024/01/22 08:12:04;;;;;;;6.15;4.03;;;;;;;-2.23;81.42;96319.56;5031715;28;20208;-76
2024/01/22 08:14:31;;;;;;;5.78;3.08;;;;;;;-1.58;79.63;96331.06;5032885;28;20245;-77
2024/01/22 08:17:01;;;;;;;10.77;2.83;;;;;;;-2.03;77.65;96311.56;5031409;28;20236;-77
2024/01/22 08:19:28;;;;;;;5.63;3.38;;;;;;;-2.98;79.50;96318.09;5033588;28;20556;-78
2024/01/22 08:21:55;;;;;;;3.25;2.65;;;;;;;-3.13;83.73;96319.28;5033794;28;20212;-78
2024/01/22 08:24:24;;;;;;;8.48;3.60;;;;;;;-2.65;82.03;96306.72;5033557;28;20232;-78
2024/01/22 08:26:52;;;;;;;7.88;2.35;;;;;;;-2.21;80.37;96298.97;5034021;28;20289;-78
2024/01/22 08:29:19;;;;;;;4.45;2.78;;;;;;;-1.53;80.93;96285.28;5030410;28;20211;-78
2024/01/22 08:31:46;;;;;;;3.85;2.63;;;;;;;-1.61;79.49;96278.34;5035146;28;20563;-80
2024/01/22 08:34:13;;;;;;;4.15;2.40;;;;;;;-1.45;79.35;96299.13;5034533;28;20848;-77
2024/01/22 08:36:40;;;;;;;8.05;3.20;;;;;;;-1.35;77.71;96297.84;5033401;28;20854;-79
2024/01/22 08:39:07;;;;;;;8.38;3.58;;;;;;;-0.88;77.92;96300.06;5033925;28;20295;-79
2024/01/22 08:41:35;;;;;;;7.32;3.13;;;;;;;-1.67;78.04;96310.25;5013844;28;20259;-78
2024/01/22 08:44:05;;;;;;;6.70;3.17;;;;;;;-0.65;76.91;96319.94;5032077;28;20687;-78
2024/01/22 08:46:32;;;;;;;1.00;1.00;;;;;;;-0.40;74.08;96318.13;5033739;28;20204;-77
2024/01/22 08:48:59;;;;;;;0.20;0.20;;;;;;;-0.22;74.03;96310.19;5033451;28;20211;-80
2024/01/22 08:51:28;;;;;;;0.40;0.40;;;;;;;-0.58;75.29;96305.59;5033925;28;20209;-78
2024/01/22 08:54:03;;;;;;;11.45;3.38;;;;;;;-0.54;75.07;96303.28;5033237;28;20209;-77
2024/01/22 08:56:30;;;;;;;8.23;4.05;;;;;;;-0.09;73.69;96296.75;5033237;28;20239;-78
2024/01/22 08:58:59;;;;;;;7.97;4.03;;;;;;;0.23;72.61;96294.81;5033387;28;20216;-79
2024/01/22 09:01:28;;;;;;;6.97;4.43;;;;;;;0.17;72.56;96302.84;5033370;28;20295;-78
2024/01/22 09:03:55;;;;;;;7.38;3.72;;;;;;;0.09;72.52;96295.16;5033450;28;20333;-77
2024/01/22 09:06:22;;;;;;;7.05;4.03;;;;;;;-0.06;72.25;96300.84;5033016;28;20311;-77
2024/01/22 09:08:49;;;;;;;4.55;2.85;;;;;;;-0.08;72.34;96310.88;5033224;28;20208;-80
2024/01/22 09:11:16;;;;;;;3.90;2.78;;;;;;;0.09;73.27;96311.97;5033499;28;20645;-78
2024/01/22 09:13:42;;;;;;;5.75;3.75;;;;;;;-0.08;74.72;96306.38;5032570;28;20208;-79
2024/01/22 09:16:14;;;;;;;8.05;3.92;;;;;;;0.19;72.06;96308.78;5032856;28;20212;-80
2024/01/22 09:18:42;;;;;;;0.73;0.73;;;;;;;0.07;73.12;96302.56;5033535;28;20631;-82
2024/01/22 09:21:09;;;;;;;0.57;0.57;;;;;;;0.19;71.55;96296.28;5033652;28;20212;-80
2024/01/22 09:23:36;;;;;;;1.05;1.05;;;;;;;0.39;70.72;96284.59;5032611;28;20216;-79
2024/01/22 09:26:03;;;;;;;0.30;0.30;;;;;;;0.68;71.12;96273.94;5032060;28;20244;-80
2024/01/22 09:28:30;;;;;;;0.20;0.20;;;;;;;0.48;72.19;96285.91;5032858;28;20204;-80
2024/01/22 09:30:59;;;;;;;0.20;0.20;;;;;;;1.25;70.57;96258.38;5033818;28;20215;-82
2024/01/22 09:33:30;;;;;;;0.32;0.32;;;;;;;0.28;68.81;96286.13;5032655;28;20296;-79
2024/01/22 09:35:57;;;;;;;0.20;0.20;;;;;;;0.47;69.43;96277.09;5033045;28;20215;-80
2024/01/22 09:38:24;;;;;;;0.20;0.20;;;;;;;1.03;69.79;96281.28;5026959;28;20304;-78
2024/01/22 09:40:51;;;;;;;7.53;1.35;;;;;;;1.10;68.84;96279.34;5034809;28;20215;-79
2024/01/22 09:43:18;;;;;;;1.27;0.95;;;;;;;1.04;70.54;96280.25;5034379;28;20315;-80
2024/01/22 09:45:47;;;;;;;0.20;0.20;;;;;;;1.21;69.02;96272.44;5033782;28;20241;-80
2024/01/22 09:48:17;;;;;;;1.25;1.00;;;;;;;1.39;70.12;96275.81;5033615;28;20205;-80
2024/01/22 09:50:50;;;;;;;0.20;0.20;;;;;;;0.87;69.77;96287.25;5034576;28;20258;-81
2024/01/22 09:53:20;;;;;;;0.20;0.20;;;;;;;0.95;68.85;96273.63;5033807;28;20209;-80
2024/01/22 09:55:51;;;;;;;1.77;1.48;;;;;;;1.32;68.87;96269.78;5033576;28;20218;-80
2024/01/22 09:58:22;;;;;;;0.30;0.30;;;;;;;1.29;69.40;96272.91;5033807;28;20599;-81
2024/01/22 10:00:51;;;;;;;0.20;0.20;;;;;;;1.50;68.48;96258.22;5033798;28;20220;-80
2024/01/22 10:03:19;;;;;;;1.35;1.25;;;;;;;1.19;68.58;96242.47;5033800;28;20243;-81
2024/01/22 10:05:52;;;;;;;0.85;0.50;;;;;;;1.48;68.75;96235.44;5032798;28;20224;-81
2024/01/22 10:08:18;;;;;;;0.20;0.20;;;;;;;1.25;70.55;96252.22;5033347;28;20235;-80
2024/01/22 10:10:45;;;;;;;6.13;1.65;;;;;;;1.54;68.94;96251.34;5032782;28;20208;-79
2024/01/22 10:13:14;;;;;;;0.30;0.30;;;;;;;1.75;68.48;96225.94;5032740;28;20209;-81
2024/01/22 10:15:41;;;;;;;0.25;0.25;;;;;;;1.64;68.64;96240.13;5032672;28;20212;-80
2024/01/22 10:18:13;;;;;;;1.30;1.30;;;;;;;1.69;66.86;96240.22;5031780;28;20239;-79
2024/01/22 10:23:17;;;;;;;0.20;0.20;;;;;;;1.78;67.39;96242.28;5181218;23;20239;-84
2024/01/22 10:25:44;;;;;;;0.28;0.28;;;;;;;0.87;68.21;96223.22;5034258;28;20594;-85
2024/01/22 10:28:12;;;;;;;0.30;0.30;;;;;;;0.05;73.64;96235.34;5035198;28;20586;-84
2024/01/22 10:30:41;;;;;;;0.32;0.32;;;;;;;0.44;72.43;96234.88;5033227;28;20204;-86
2024/01/22 10:33:15;;;;;;;0.63;0.63;;;;;;;1.35;74.05;96221.28;5046521;23;20359;-79
2024/01/22 10:35:43;;;;;;;0.20;0.20;;;;;;;1.93;70.94;96223.13;5052115;28;20214;-79
2024/01/22 10:38:13;;;;;;;0.50;0.50;;;;;;;2.17;69.46;96217.75;5052037;28;20211;-80
2024/01/22 10:40:42;;;;;;;0.30;0.30;;;;;;;1.69;68.03;96221.50;5053197;28;20211;-80
2024/01/22 10:43:19;;;;;;;3.72;1.85;;;;;;;1.07;71.23;96213.09;5052717;28;20200;-81
2024/01/22 10:45:48;;;;;;;0.20;0.20;;;;;;;0.51;71.99;96210.81;5052278;28;20682;-80
2024/01/22 10:48:17;;;;;;;1.40;1.38;;;;;;;-1.11;76.81;96220.03;5051904;28;20747;-77
2024/01/22 10:50:44;;;;;;;1.13;1.13;;;;;;;-1.58;80.05;96227.44;5052330;28;20231;-77
2024/01/22 10:53:12;;;;;;;0.22;0.22;;;;;;;-1.49;81.52;96218.19;5052599;28;20204;-77
2024/01/22 10:55:39;;;;;;;13.82;4.45;;;;;;;-0.83;80.42;96196.50;5052288;28;20679;-77
2024/01/22 10:58:18;;;;;;;13.07;6.72;;;;;;;-0.27;78.61;96198.19;5051026;28;20208;-79
2024/01/22 11:00:45;;;;;;;0.77;0.77;;;;;;;-0.09;79.40;96192.88;5052226;28;20230;-79
2024/01/22 11:03:15;;;;;;;0.20;0.20;;;;;;;0.18;76.27;96177.41;5052230;28;20612;-78
2024/01/22 11:05:46;;;;;;;11.60;6.05;;;;;;;-0.59;77.24;96181.53;5052110;28;20297;-80
2024/01/22 11:08:15;;;;;;;3.03;0.75;;;;;;;-0.74;79.08;96189.03;5052152;28;20203;-79
2024/01/22 11:10:45;;;;;;;0.50;0.50;;;;;;;-0.47;79.18;96186.94;5052132;28;20219;-79
2024/01/22 11:13:16;;;;;;;9.75;4.55;;;;;;;-0.30;78.35;96196.00;5051617;28;20269;-79
2024/01/22 11:15:43;;;;;;;11.30;5.75;;;;;;;-0.70;80.21;96194.75;5038916;28;20203;-80
2024/01/22 11:18:10;;;;;;;13.60;6.72;;;;;;;-0.59;79.86;96191.38;5051684;28;20217;-78
2024/01/22 11:20:38;;;;;;;12.18;6.75;;;;;;;-1.01;81.09;96193.78;5051867;28;20333;-79
2024/01/22 11:23:09;;;;;;;9.77;5.13;;;;;;;-0.89;81.59;96192.03;5052104;28;20321;-79
2024/01/22 11:25:37;;;;;;;13.65;6.03;;;;;;;-0.97;82.04;96184.34;5051899;28;20323;-79
2024/01/22 11:28:06;;;;;;;21.67;7.55;;;;;;;-0.59;81.11;96188.72;5052004;28;20203;-79
2024/01/22 11:30:38;;;;;;;8.63;6.30;;;;;;;-0.88;81.27;96180.38;5051686;28;20203;-79
2024/01/22 11:33:31;;;;;;;11.02;6.40;;;;;;;-0.58;82.32;96169.06;5051678;28;20236;-78
2024/01/22 11:35:59;;;;;;;12.25;5.90;;;;;;;-0.86;81.62;96167.66;5051806;28;20266;-80